createdAt,value
2019-02-18T00:02:23.071Z,6.60
2019-02-18T00:04:50.459Z,8.00
2019-02-18T00:07:17.879Z,7.27
2019-02-18T00:09:45.272Z,7.17
2019-02-18T00:12:12.692Z,7.20
2019-02-18T00:14:40.078Z,7.00
2019-02-18T00:17:07.504Z,7.53
2019-02-18T00:19:34.889Z,8.00
2019-02-18T00:22:02.320Z,6.80
2019-02-18T00:24:29.715Z,8.27
2019-02-18T00:26:57.097Z,6.53
2019-02-18T00:29:24.520Z,7.47
2019-02-18T00:31:51.912Z,6.60
2019-02-18T00:34:19.332Z,7.10
2019-02-18T00:36:46.721Z,7.37
2019-02-18T00:39:14.147Z,8.17
2019-02-18T00:41:41.533Z,6.70
2019-02-18T00:44:08.956Z,7.90
2019-02-18T00:46:36.343Z,7.57
2019-02-18T00:49:03.757Z,7.13
2019-02-18T00:51:31.149Z,7.40
2019-02-18T00:53:58.567Z,7.50
2019-02-18T00:56:25.950Z,6.53
2019-02-18T00:58:53.367Z,8.27
2019-02-18T01:01:20.835Z,6.80
2019-02-18T01:03:48.242Z,6.30
2019-02-18T01:06:15.642Z,7.37
2019-02-18T01:08:43.062Z,6.43
2019-02-18T01:11:10.454Z,6.80
2019-02-18T01:13:37.877Z,7.67
2019-02-18T01:16:05.331Z,6.83
2019-02-18T01:18:32.756Z,6.00
2019-02-18T01:21:00.147Z,7.00
2019-02-18T01:23:27.555Z,6.90
2019-02-18T01:25:54.947Z,6.70
2019-02-18T01:28:22.359Z,6.23
2019-02-18T01:30:49.766Z,6.57
2019-02-18T01:33:17.183Z,5.90
2019-02-18T01:35:44.589Z,7.53
2019-02-18T01:38:12.042Z,7.07
2019-02-18T01:40:39.437Z,6.70
2019-02-18T01:43:07.002Z,6.30
2019-02-18T01:45:34.396Z,8.20
2019-02-18T01:48:01.811Z,6.57
2019-02-18T01:50:29.205Z,7.17
2019-02-18T01:52:56.614Z,7.93
2019-02-18T01:55:24.013Z,6.07
2019-02-18T01:57:51.411Z,6.40
2019-02-18T02:00:18.841Z,7.50
2019-02-18T02:02:46.223Z,7.10
2019-02-18T02:05:15.073Z,7.10
2019-02-18T02:07:42.475Z,6.53
2019-02-18T02:10:10.965Z,6.83
2019-02-18T02:12:38.353Z,7.40
2019-02-18T02:15:07.658Z,6.80
2019-02-18T02:17:35.050Z,6.70
2019-02-18T02:20:02.541Z,6.17
2019-02-18T02:22:29.932Z,7.37
2019-02-18T02:24:57.344Z,7.47
2019-02-18T02:27:24.735Z,8.13
2019-02-18T02:29:52.150Z,6.70
2019-02-18T02:32:19.544Z,6.63
2019-02-18T02:34:46.964Z,6.63
2019-02-18T02:37:14.350Z,7.57
2019-02-18T02:39:41.766Z,6.83
2019-02-18T02:42:09.156Z,7.47
2019-02-18T02:44:36.598Z,6.53
2019-02-18T02:47:03.978Z,6.90
2019-02-18T02:49:31.401Z,7.23
2019-02-18T02:51:58.796Z,7.50
2019-02-18T02:54:26.209Z,7.13
2019-02-18T02:56:53.608Z,6.10
2019-02-18T02:59:21.020Z,7.20
2019-02-18T03:01:48.415Z,7.40
2019-02-18T03:04:15.814Z,6.70
2019-02-18T03:06:43.226Z,7.53
2019-02-18T03:09:10.624Z,7.07
2019-02-18T03:11:38.034Z,7.07
2019-02-18T03:14:05.423Z,7.00
2019-02-18T03:16:32.844Z,6.80
2019-02-18T03:19:00.236Z,6.87
2019-02-18T03:21:27.648Z,6.67
2019-02-18T03:23:55.043Z,5.90
2019-02-18T03:26:22.472Z,7.10
2019-02-18T03:29:06.475Z,7.50
2019-02-18T03:31:41.417Z,7.10
2019-02-18T03:34:10.334Z,6.70
2019-02-18T03:36:37.758Z,6.20
2019-02-18T03:39:05.825Z,6.50
2019-02-18T03:41:33.247Z,6.27
2019-02-18T03:44:00.636Z,6.03
2019-02-18T03:46:28.055Z,6.80
2019-02-18T03:48:55.437Z,6.03
2019-02-18T03:51:22.854Z,7.33
2019-02-18T03:53:50.240Z,6.87
2019-02-18T03:56:17.719Z,6.30
2019-02-18T03:58:45.180Z,5.73
2019-02-18T04:01:12.676Z,6.83
2019-02-18T04:03:40.068Z,6.23
2019-02-18T04:06:07.496Z,6.90
2019-02-18T04:08:42.265Z,7.40
2019-02-18T04:11:04.019Z,6.37
2019-02-18T04:13:31.413Z,6.83
2019-02-18T04:15:58.816Z,6.37
2019-02-18T04:18:26.209Z,6.50
2019-02-18T04:20:53.617Z,5.63
2019-02-18T04:23:21.001Z,6.20
2019-02-18T04:25:48.428Z,5.70
2019-02-18T04:28:15.802Z,7.00
2019-02-18T04:30:43.240Z,6.80
2019-02-18T04:33:10.630Z,6.30
2019-02-18T04:35:38.052Z,6.63
2019-02-18T04:38:05.442Z,7.13
2019-02-18T04:40:32.837Z,6.53
2019-02-18T04:43:00.251Z,6.70
2019-02-18T04:45:27.644Z,6.70
2019-02-18T04:47:55.058Z,6.60
2019-02-18T04:50:22.460Z,6.93
2019-02-18T04:52:49.876Z,6.70
2019-02-18T04:55:17.278Z,7.13
2019-02-18T04:57:44.762Z,5.90
2019-02-18T05:00:12.223Z,5.80
2019-02-18T05:02:39.634Z,5.97
2019-02-18T05:05:08.148Z,5.70
2019-02-18T05:07:35.581Z,5.80
2019-02-18T05:10:02.965Z,7.07
2019-02-18T05:12:30.386Z,6.20
2019-02-18T05:14:57.769Z,7.00
2019-02-18T05:17:25.182Z,6.70
2019-02-18T05:19:52.578Z,7.07
2019-02-18T05:22:20.005Z,5.97
2019-02-18T05:24:47.423Z,6.23
2019-02-18T05:27:14.821Z,7.03
2019-02-18T05:29:42.206Z,6.80
2019-02-18T05:32:09.632Z,7.23
2019-02-18T05:34:37.023Z,7.40
2019-02-18T05:37:04.445Z,8.23
2019-02-18T05:39:31.838Z,8.60
2019-02-18T05:41:59.258Z,8.50
2019-02-18T05:44:26.673Z,103.87
2019-02-18T05:46:54.123Z,81.50
2019-02-18T05:49:21.523Z,50.37
2019-02-18T05:51:48.953Z,44.23
2019-02-18T05:54:16.349Z,40.03
2019-02-18T05:56:43.773Z,35.00
2019-02-18T05:59:11.209Z,26.50
2019-02-18T06:01:38.641Z,18.90
2019-02-18T06:04:06.034Z,17.90
2019-02-18T06:06:33.470Z,18.07
2019-02-18T06:09:00.872Z,17.10
2019-02-18T06:11:28.297Z,15.00
2019-02-18T06:13:55.714Z,13.70
2019-02-18T06:16:23.140Z,14.47
2019-02-18T06:18:50.557Z,13.70
2019-02-18T06:21:17.991Z,13.70
2019-02-18T06:23:45.396Z,12.70
2019-02-18T06:26:12.826Z,12.40
2019-02-18T06:28:40.227Z,11.93
2019-02-18T06:31:07.654Z,11.80
2019-02-18T06:33:35.051Z,11.57
2019-02-18T06:36:02.445Z,11.87
2019-02-18T06:38:29.879Z,11.03
2019-02-18T06:40:57.277Z,10.43
2019-02-18T06:43:24.713Z,11.53
2019-02-18T06:45:53.734Z,9.87
2019-02-18T06:48:22.849Z,10.20
2019-02-18T06:50:50.262Z,8.90
2019-02-18T06:53:17.683Z,8.90
2019-02-18T06:55:45.160Z,9.40
2019-02-18T06:58:23.103Z,10.00
2019-02-18T07:01:07.273Z,8.97
2019-02-18T07:03:54.194Z,7.50
2019-02-18T07:06:39.832Z,7.20
2019-02-18T07:09:08.898Z,8.60
2019-02-18T07:11:37.931Z,8.00
2019-02-18T07:14:05.418Z,8.83
2019-02-18T07:16:32.814Z,8.30
2019-02-18T07:19:00.234Z,8.03
2019-02-18T07:21:27.626Z,7.83
2019-02-18T07:23:55.076Z,8.07
2019-02-18T07:26:22.466Z,7.40
2019-02-18T07:28:49.887Z,7.83
2019-02-18T07:31:17.283Z,7.60
2019-02-18T07:33:44.704Z,7.30
2019-02-18T07:36:12.162Z,7.43
2019-02-18T07:38:39.582Z,8.10
2019-02-18T07:41:06.976Z,6.20
2019-02-18T07:43:34.391Z,6.33
2019-02-18T07:46:01.793Z,6.30
2019-02-18T07:48:29.203Z,6.83
2019-02-18T07:50:56.599Z,6.80
2019-02-18T07:53:24.019Z,7.10
2019-02-18T07:55:51.409Z,6.47
2019-02-18T07:58:18.842Z,6.97
2019-02-18T08:00:46.243Z,6.30
2019-02-18T08:03:13.663Z,6.17
2019-02-18T08:05:41.053Z,5.67
2019-02-18T08:08:08.486Z,6.07
2019-02-18T08:10:35.907Z,5.50
2019-02-18T08:13:03.290Z,6.80
2019-02-18T08:15:30.711Z,8.10
2019-02-18T08:17:58.109Z,6.20
2019-02-18T08:20:25.527Z,6.90
2019-02-18T08:22:52.913Z,6.27
2019-02-18T08:25:20.347Z,5.30
2019-02-18T08:27:47.795Z,5.77
2019-02-18T08:30:15.379Z,5.83
2019-02-18T08:32:42.759Z,5.60
2019-02-18T08:35:10.244Z,6.03
2019-02-18T08:37:37.634Z,5.33
2019-02-18T08:40:06.357Z,6.27
2019-02-18T08:42:34.320Z,5.90
2019-02-18T08:45:01.723Z,6.70
2019-02-18T08:47:29.128Z,6.13
2019-02-18T08:49:56.548Z,5.60
2019-02-18T08:52:23.939Z,5.63
2019-02-18T08:54:56.575Z,6.10
2019-02-18T08:57:20.474Z,6.20
2019-02-18T08:59:47.994Z,5.33
2019-02-18T09:02:15.387Z,6.50
2019-02-18T09:04:42.803Z,5.80
2019-02-18T09:07:10.189Z,5.87
2019-02-18T09:09:37.628Z,5.00
2019-02-18T09:12:05.017Z,5.90
2019-02-18T09:14:32.417Z,4.60
2019-02-18T09:16:59.879Z,5.97
2019-02-18T09:19:27.340Z,5.83
2019-02-18T09:21:56.394Z,5.57
2019-02-18T09:24:34.365Z,4.80
2019-02-18T09:27:01.802Z,5.80
2019-02-18T09:29:29.188Z,4.03
2019-02-18T09:31:56.716Z,4.70
2019-02-18T09:34:24.112Z,4.70
2019-02-18T09:36:51.624Z,5.43
2019-02-18T09:39:30.072Z,5.27
2019-02-18T09:41:48.643Z,4.60
2019-02-18T09:44:16.115Z,5.10
2019-02-18T09:46:43.534Z,5.20
2019-02-18T09:49:10.924Z,4.27
2019-02-18T09:51:38.338Z,5.23
2019-02-18T09:54:05.719Z,4.80
2019-02-18T09:56:33.219Z,4.80
2019-02-18T09:59:00.616Z,5.50
2019-02-18T10:01:28.034Z,5.80
2019-02-18T10:03:55.498Z,4.23
2019-02-18T10:06:22.923Z,5.40
2019-02-18T10:08:50.319Z,4.40
2019-02-18T10:11:17.737Z,5.43
2019-02-18T10:13:45.191Z,4.70
2019-02-18T10:16:12.613Z,5.57
2019-02-18T10:18:40.004Z,4.60
2019-02-18T10:21:07.429Z,4.83
2019-02-18T10:23:34.824Z,5.13
2019-02-18T10:26:02.237Z,4.90
2019-02-18T10:28:29.624Z,5.03
2019-02-18T10:30:57.126Z,4.40
2019-02-18T10:33:24.577Z,4.57
2019-02-18T10:35:51.995Z,4.90
2019-02-18T10:38:19.393Z,3.90
2019-02-18T10:40:46.878Z,5.63
2019-02-18T10:43:14.271Z,4.67
2019-02-18T10:45:41.708Z,4.70
2019-02-18T10:48:09.239Z,4.03
2019-02-18T10:50:36.658Z,4.93
2019-02-18T10:53:04.148Z,4.27
2019-02-18T10:55:31.816Z,4.13
2019-02-18T10:57:59.287Z,4.60
2019-02-18T11:00:28.016Z,4.27
2019-02-18T11:02:55.423Z,3.63
2019-02-18T11:05:22.815Z,3.53
2019-02-18T11:07:50.236Z,3.80
2019-02-18T11:10:17.790Z,3.77
2019-02-18T11:12:47.520Z,4.40
2019-02-18T11:15:14.615Z,4.53
2019-02-18T11:17:42.330Z,3.80
2019-02-18T11:20:12.680Z,4.20
2019-02-18T11:22:40.098Z,4.40
2019-02-18T11:25:08.940Z,4.30
2019-02-18T11:27:36.478Z,3.80
2019-02-18T11:30:05.452Z,4.00
2019-02-18T11:32:33.264Z,4.10
2019-02-18T11:35:00.832Z,3.57
2019-02-18T11:37:28.489Z,4.60
2019-02-18T11:39:55.879Z,3.57
2019-02-18T11:42:23.290Z,3.93
2019-02-18T11:44:50.669Z,4.00
2019-02-18T11:47:18.098Z,3.93
2019-02-18T11:49:45.788Z,3.83
2019-02-18T11:52:13.208Z,4.13
2019-02-18T11:54:40.609Z,3.73
2019-02-18T11:57:08.025Z,3.30
2019-02-18T11:59:35.412Z,3.63
2019-02-18T12:02:02.830Z,3.87
2019-02-18T12:04:30.207Z,3.50
2019-02-18T12:06:57.646Z,4.47
2019-02-18T12:09:25.019Z,3.17
2019-02-18T12:11:52.408Z,3.17
2019-02-18T12:14:19.821Z,4.13
2019-02-18T12:16:47.208Z,3.63
2019-02-18T12:19:14.623Z,3.73
2019-02-18T12:21:42.012Z,3.10
2019-02-18T12:24:09.832Z,3.23
2019-02-18T12:26:37.218Z,4.07
2019-02-18T12:29:04.633Z,4.80
2019-02-18T12:31:32.027Z,3.90
2019-02-18T12:33:59.435Z,3.50
2019-02-18T12:36:26.829Z,3.23
2019-02-18T12:38:54.248Z,3.60
2019-02-18T12:41:21.631Z,3.20
2019-02-18T12:43:49.050Z,3.70
2019-02-18T12:46:16.454Z,3.70
2019-02-18T12:48:43.876Z,3.20
2019-02-18T12:51:11.262Z,3.47
2019-02-18T12:53:38.677Z,3.67
2019-02-18T12:56:06.083Z,3.10
2019-02-18T12:58:33.569Z,3.87
2019-02-18T13:01:01.331Z,4.10
2019-02-18T13:03:28.814Z,3.87
2019-02-18T13:05:56.201Z,3.07
2019-02-18T13:08:25.122Z,2.80
2019-02-18T13:10:52.875Z,3.27
2019-02-18T13:13:20.291Z,2.50
2019-02-18T13:15:47.708Z,3.00
2019-02-18T13:18:15.122Z,3.43
2019-02-18T13:20:42.504Z,3.40
2019-02-18T13:23:10.118Z,3.90
2019-02-18T13:25:37.530Z,3.37
2019-02-18T13:28:08.479Z,2.90
2019-02-18T13:30:34.067Z,2.97
2019-02-18T13:33:01.533Z,2.80
2019-02-18T13:35:28.978Z,3.47
2019-02-18T13:37:56.374Z,3.00
2019-02-18T13:40:24.196Z,3.00
2019-02-18T13:42:51.587Z,2.67
2019-02-18T13:45:19.123Z,2.90
2019-02-18T13:47:46.580Z,2.90
2019-02-18T13:50:14.170Z,2.43
2019-02-18T13:52:41.559Z,2.80
2019-02-18T13:55:09.744Z,2.77
2019-02-18T13:57:37.805Z,2.70
2019-02-18T14:00:06.759Z,2.90
2019-02-18T14:02:34.185Z,2.70
2019-02-18T14:05:01.603Z,2.73
2019-02-18T14:07:28.997Z,2.80
2019-02-18T14:09:56.483Z,3.10
2019-02-18T14:12:23.876Z,2.43
2019-02-18T14:14:51.688Z,2.77
2019-02-18T14:17:19.070Z,3.30
2019-02-18T14:19:46.484Z,2.90
2019-02-18T14:22:13.872Z,3.17
2019-02-18T14:24:41.278Z,2.70
2019-02-18T14:27:08.735Z,2.87
2019-02-18T14:29:36.250Z,3.07
2019-02-18T14:32:04.095Z,2.30
2019-02-18T14:34:31.575Z,2.63
2019-02-18T14:36:59.004Z,3.00
2019-02-18T14:39:26.711Z,2.87
2019-02-18T14:41:54.179Z,3.07
2019-02-18T14:44:21.606Z,2.80
2019-02-18T14:46:49.003Z,2.73
2019-02-18T14:49:16.889Z,2.33
2019-02-18T14:51:44.282Z,2.77
2019-02-18T14:54:11.707Z,3.50
2019-02-18T14:56:39.091Z,2.93
2019-02-18T14:59:06.571Z,2.87
2019-02-18T15:01:33.963Z,3.07
2019-02-18T15:04:01.381Z,3.60
2019-02-18T15:06:28.774Z,3.23
2019-02-18T15:08:56.222Z,3.43
2019-02-18T15:11:23.633Z,3.00
2019-02-18T15:13:51.031Z,2.23
2019-02-18T15:16:18.452Z,3.50
2019-02-18T15:18:45.897Z,3.03
2019-02-18T15:21:13.321Z,2.70
2019-02-18T15:23:40.703Z,2.63
2019-02-18T15:26:08.183Z,2.40
2019-02-18T15:28:35.580Z,3.10
2019-02-18T15:31:02.992Z,2.77
2019-02-18T15:33:30.374Z,2.87
2019-02-18T15:35:57.787Z,2.70
2019-02-18T15:38:25.174Z,2.63
2019-02-18T15:40:52.582Z,3.17
2019-02-18T15:43:20.150Z,2.83
2019-02-18T15:45:47.568Z,2.60
2019-02-18T15:48:15.126Z,2.43
2019-02-18T15:50:42.543Z,2.67
2019-02-18T15:53:09.930Z,2.80
2019-02-18T15:55:37.777Z,3.30
2019-02-18T15:58:05.162Z,3.37
2019-02-18T16:00:32.677Z,2.90
2019-02-18T16:03:00.066Z,2.80
2019-02-18T16:05:27.483Z,2.93
2019-02-18T16:07:54.871Z,2.60
2019-02-18T16:10:22.469Z,2.77
2019-02-18T16:12:51.073Z,3.23
2019-02-18T16:15:18.669Z,2.53
2019-02-18T16:17:46.061Z,3.20
2019-02-18T16:20:13.944Z,2.83
2019-02-18T16:22:41.402Z,2.70
2019-02-18T16:25:10.489Z,2.97
2019-02-18T16:27:37.883Z,2.50
2019-02-18T16:30:06.863Z,3.17
2019-02-18T16:32:34.251Z,2.47
2019-02-18T16:35:01.639Z,2.70
2019-02-18T16:37:29.364Z,2.70
2019-02-18T16:39:57.022Z,2.63
2019-02-18T16:42:24.483Z,2.57
2019-02-18T16:44:52.065Z,2.60
2019-02-18T16:47:19.491Z,2.67
2019-02-18T16:49:47.281Z,2.93
2019-02-18T16:52:14.707Z,2.43
2019-02-18T16:54:42.103Z,2.70
2019-02-18T16:57:09.517Z,2.60
2019-02-18T16:59:36.961Z,2.60
2019-02-18T17:02:04.451Z,2.63
2019-02-18T17:04:31.831Z,2.73
2019-02-18T17:06:59.714Z,3.00
2019-02-18T17:09:27.137Z,3.17
2019-02-18T17:11:54.629Z,3.02
2019-02-18T17:14:22.011Z,3.87
2019-02-18T17:16:49.430Z,3.20
2019-02-18T17:19:16.919Z,3.60
2019-02-18T17:21:45.595Z,3.50
2019-02-18T17:24:13.133Z,2.87
2019-02-18T17:26:40.555Z,4.87
2019-02-18T17:29:07.946Z,3.40
2019-02-18T17:31:35.372Z,3.43
2019-02-18T17:34:02.795Z,3.80
2019-02-18T17:36:30.215Z,3.40
2019-02-18T17:38:57.603Z,3.57
2019-02-18T17:41:25.039Z,4.03
2019-02-18T17:43:52.752Z,3.93
2019-02-18T17:46:20.154Z,3.53
2019-02-18T17:48:47.647Z,4.07
2019-02-18T17:51:15.067Z,4.40
2019-02-18T17:53:42.547Z,4.00
2019-02-18T17:56:09.907Z,3.97
2019-02-18T17:58:37.393Z,4.23
2019-02-18T18:01:05.083Z,3.90
2019-02-18T18:03:32.495Z,3.90
2019-02-18T18:05:59.956Z,3.67
2019-02-18T18:08:27.473Z,4.30
2019-02-18T18:10:54.868Z,4.40
2019-02-18T18:13:25.215Z,3.90
2019-02-18T18:15:51.359Z,3.60
2019-02-18T18:18:19.234Z,4.80
2019-02-18T18:20:46.631Z,7.83
2019-02-18T18:23:14.047Z,14.63
2019-02-18T18:25:41.551Z,9.37
2019-02-18T18:28:08.974Z,14.70
2019-02-18T18:30:36.542Z,15.80
2019-02-18T18:33:03.963Z,17.10
2019-02-18T18:35:31.771Z,17.33
2019-02-18T18:37:59.196Z,19.27
2019-02-18T18:40:26.604Z,19.60
2019-02-18T18:42:54.039Z,18.60
2019-02-18T18:45:21.445Z,16.80
2019-02-18T18:47:48.951Z,17.03
2019-02-18T18:50:17.519Z,14.20
2019-02-18T18:52:45.514Z,18.93
2019-02-18T18:55:12.983Z,18.60
2019-02-18T18:57:40.482Z,18.47
2019-02-18T19:00:09.679Z,17.70
2019-02-18T19:02:37.131Z,23.70
2019-02-18T19:05:05.805Z,24.50
2019-02-18T19:07:33.652Z,23.00
2019-02-18T19:10:01.032Z,29.53
2019-02-18T19:12:28.502Z,26.17
2019-02-18T19:14:55.931Z,27.13
2019-02-18T19:17:23.331Z,30.07
2019-02-18T19:19:57.731Z,29.57
2019-02-18T19:22:19.926Z,27.00
2019-02-18T19:24:47.659Z,27.37
2019-02-18T19:27:15.067Z,36.60
2019-02-18T19:29:42.551Z,31.93
2019-02-18T19:32:09.942Z,27.67
2019-02-18T19:34:37.379Z,29.00
2019-02-18T19:37:04.798Z,30.13
2019-02-18T19:39:32.228Z,33.10
2019-02-18T19:41:59.826Z,34.97
2019-02-18T19:44:27.251Z,29.80
2019-02-18T19:46:54.650Z,32.07
2019-02-18T19:49:22.074Z,30.73
2019-02-18T19:51:49.475Z,26.47
2019-02-18T19:54:16.904Z,23.50
2019-02-18T19:56:44.298Z,24.43
2019-02-18T19:59:11.727Z,21.57
2019-02-18T20:01:39.190Z,23.83
2019-02-18T20:04:06.614Z,22.27
2019-02-18T20:06:34.014Z,19.97
2019-02-18T20:09:01.430Z,19.17
2019-02-18T20:11:28.835Z,18.87
2019-02-18T20:13:58.909Z,21.17
2019-02-18T20:16:25.288Z,19.97
2019-02-18T20:18:52.725Z,19.23
2019-02-18T20:21:20.119Z,18.80
2019-02-18T20:23:47.530Z,17.40
2019-02-18T20:26:14.958Z,18.13
2019-02-18T20:28:42.452Z,17.10
2019-02-18T20:31:10.142Z,18.07
2019-02-18T20:33:37.561Z,16.20
2019-02-18T20:36:04.953Z,15.07
2019-02-18T20:38:32.376Z,17.57
2019-02-18T20:40:59.768Z,17.17
2019-02-18T20:43:27.257Z,14.60
2019-02-18T20:45:54.653Z,17.17
2019-02-18T20:48:22.350Z,16.13
2019-02-18T20:50:49.781Z,15.83
2019-02-18T20:53:17.182Z,13.33
2019-02-18T20:55:44.607Z,15.17
2019-02-18T20:58:12.003Z,13.80
2019-02-18T21:00:39.489Z,15.00
2019-02-18T21:03:06.919Z,13.90
2019-02-18T21:05:34.545Z,13.00
2019-02-18T21:08:01.939Z,14.20
2019-02-18T21:10:29.366Z,14.20
2019-02-18T21:12:56.768Z,13.67
2019-02-18T21:15:24.274Z,13.37
2019-02-18T21:17:51.651Z,12.40
2019-02-18T21:20:19.142Z,11.50
2019-02-18T21:22:46.920Z,12.00
2019-02-18T21:25:14.339Z,12.53
2019-02-18T21:27:41.730Z,11.73
2019-02-18T21:30:10.726Z,13.10
2019-02-18T21:32:39.945Z,11.73
2019-02-18T21:35:07.302Z,12.67
2019-02-18T21:37:34.662Z,12.50
2019-02-18T21:40:02.462Z,12.17
2019-02-18T21:42:29.906Z,11.93
2019-02-18T21:44:57.329Z,12.73
2019-02-18T21:47:24.716Z,9.70
2019-02-18T21:49:52.220Z,11.57
2019-02-18T21:52:19.603Z,12.00
2019-02-18T21:54:47.024Z,10.60
2019-02-18T21:57:14.720Z,12.70
2019-02-18T21:59:42.151Z,11.77
2019-02-18T22:02:09.551Z,12.00
2019-02-18T22:04:36.942Z,9.93
2019-02-18T22:07:04.363Z,10.15
2019-02-18T22:09:31.763Z,9.17
2019-02-18T22:11:59.260Z,11.00
2019-02-18T22:14:33.236Z,10.17
2019-02-18T22:16:56.030Z,11.03
2019-02-18T22:19:23.422Z,10.10
2019-02-18T22:21:50.841Z,10.57
2019-02-18T22:24:18.238Z,9.63
2019-02-18T22:26:45.654Z,12.10
2019-02-18T22:29:13.045Z,9.33
2019-02-18T22:31:40.467Z,9.73
2019-02-18T22:34:08.159Z,9.57
2019-02-18T22:36:35.587Z,10.07
2019-02-18T22:39:04.057Z,10.20
2019-02-18T22:41:31.474Z,10.57
2019-02-18T22:43:58.873Z,10.20
2019-02-18T22:46:26.299Z,9.90
2019-02-18T22:48:53.689Z,8.50
2019-02-18T22:51:21.611Z,9.33
2019-02-18T22:53:48.998Z,8.80
2019-02-18T22:56:16.492Z,9.03
2019-02-18T22:58:43.885Z,9.43
2019-02-18T23:01:11.474Z,10.57
2019-02-18T23:03:38.873Z,9.37
2019-02-18T23:06:06.369Z,9.40
2019-02-18T23:08:33.755Z,8.63
2019-02-18T23:11:01.382Z,10.20
2019-02-18T23:13:28.770Z,8.57
2019-02-18T23:15:56.562Z,8.40
2019-02-18T23:18:23.981Z,8.17
2019-02-18T23:20:51.387Z,8.70
2019-02-18T23:23:18.827Z,9.50
2019-02-18T23:25:46.194Z,8.77
2019-02-18T23:28:13.918Z,7.87
2019-02-18T23:30:41.314Z,8.37
2019-02-18T23:33:08.730Z,8.30
2019-02-18T23:35:36.123Z,7.83
2019-02-18T23:38:03.613Z,8.60
2019-02-18T23:40:31.014Z,7.80
2019-02-18T23:42:58.425Z,7.80
2019-02-18T23:45:25.820Z,9.00
2019-02-18T23:47:53.247Z,8.10
2019-02-18T23:50:20.643Z,7.10
2019-02-18T23:52:48.437Z,7.67
2019-02-18T23:55:15.825Z,8.00
2019-02-18T23:57:43.244Z,7.40
